sensor_id;sensor_type;location;lat;lon;timestamp;pressure;altitude;pressure_sealevel;temperature;humidity
18137;BME280;9194;42.632;23.298;2022-07-25T00:04:16;92708.31;;;22.18;100.00
18137;BME280;9194;42.632;23.298;2022-07-25T00:09:18;92708.47;;;22.07;100.00
18137;BME280;9194;42.632;23.298;2022-07-25T00:14:19;92706.25;;;21.96;100.00
18137;BME280;9194;42.632;23.298;2022-07-25T00:19:20;92709.19;;;21.94;100.00
18137;BME280;9194;42.632;23.298;2022-07-25T00:24:22;92705.03;;;21.88;100.00
18137;BME280;9194;42.632;23.298;2022-07-25T00:29:24;92697.38;;;21.87;100.00
18137;BME280;9194;42.632;23.298;2022-07-25T00:34:25;92687.56;;;21.87;100.00
18137;BME280;9194;42.632;23.298;2022-07-25T00:39:26;92682.59;;;21.81;100.00
18137;BME280;9194;42.632;23.298;2022-07-25T00:44:30;92672.16;;;21.70;100.00
18137;BME280;9194;42.632;23.298;2022-07-25T00:49:32;92677.91;;;21.59;100.00
18137;BME280;9194;42.632;23.298;2022-07-25T00:54:34;92675.41;;;21.49;100.00
18137;BME280;9194;42.632;23.298;2022-07-25T00:59:35;92676.81;;;21.41;100.00
18137;BME280;9194;42.632;23.298;2022-07-25T01:04:37;92681.53;;;21.44;100.00
18137;BME280;9194;42.632;23.298;2022-07-25T01:09:38;92678.88;;;21.44;100.00
18137;BME280;9194;42.632;23.298;2022-07-25T01:14:39;92684.34;;;21.53;100.00
18137;BME280;9194;42.632;23.298;2022-07-25T01:19:41;92686.63;;;21.59;100.00
18137;BME280;9194;42.632;23.298;2022-07-25T01:24:42;92677.13;;;21.58;100.00
18137;BME280;9194;42.632;23.298;2022-07-25T01:29:44;92677.13;;;21.58;100.00
18137;BME280;9194;42.632;23.298;2022-07-25T01:34:45;92679.47;;;21.60;100.00
18137;BME280;9194;42.632;23.298;2022-07-25T01:39:46;92683.63;;;21.66;100.00
18137;BME280;9194;42.632;23.298;2022-07-25T01:44:47;92669.88;;;21.64;100.00
18137;BME280;9194;42.632;23.298;2022-07-25T01:49:49;92676.16;;;21.68;100.00
18137;BME280;9194;42.632;23.298;2022-07-25T01:54:50;92686.34;;;21.80;94.99
18137;BME280;9194;42.632;23.298;2022-07-25T01:59:51;92680.66;;;21.86;95.43
18137;BME280;9194;42.632;23.298;2022-07-25T02:04:53;92683.25;;;21.91;91.59
18137;BME280;9194;42.632;23.298;2022-07-25T02:09:54;92687.34;;;22.02;88.93
18137;BME280;9194;42.632;23.298;2022-07-25T02:14:55;92684.81;;;21.92;94.11
18137;BME280;9194;42.632;23.298;2022-07-25T02:19:57;92685.41;;;21.70;94.79
18137;BME280;9194;42.632;23.298;2022-07-25T02:24:58;92686.28;;;21.47;97.97
18137;BME280;9194;42.632;23.298;2022-07-25T02:29:59;92689.69;;;21.29;100.00
18137;BME280;9194;42.632;23.298;2022-07-25T02:35:00;92694.53;;;21.22;99.87
18137;BME280;9194;42.632;23.298;2022-07-25T02:40:02;92682.75;;;21.09;100.00
18137;BME280;9194;42.632;23.298;2022-07-25T02:45:04;92683.47;;;20.96;100.00
18137;BME280;9194;42.632;23.298;2022-07-25T02:50:06;92684.06;;;20.88;100.00
18137;BME280;9194;42.632;23.298;2022-07-25T02:55:08;92681.53;;;20.78;100.00
18137;BME280;9194;42.632;23.298;2022-07-25T03:00:10;92678.16;;;20.72;99.13
18137;BME280;9194;42.632;23.298;2022-07-25T03:05:13;92679.22;;;20.71;100.00
18137;BME280;9194;42.632;23.298;2022-07-25T03:10:15;92678.97;;;20.73;100.00
18137;BME280;9194;42.632;23.298;2022-07-25T03:15:16;92684.78;;;20.70;100.00
18137;BME280;9194;42.632;23.298;2022-07-25T03:20:17;92682.22;;;20.65;100.00
18137;BME280;9194;42.632;23.298;2022-07-25T03:25:19;92681.19;;;20.61;100.00
18137;BME280;9194;42.632;23.298;2022-07-25T03:30:20;92685.91;;;20.64;100.00
18137;BME280;9194;42.632;23.298;2022-07-25T03:35:22;92689.56;;;20.68;100.00
18137;BME280;9194;42.632;23.298;2022-07-25T03:40:23;92691.47;;;20.62;100.00
18137;BME280;9194;42.632;23.298;2022-07-25T03:45:24;92686.50;;;20.61;100.00
18137;BME280;9194;42.632;23.298;2022-07-25T03:50:27;92679.63;;;20.60;100.00
18137;BME280;9194;42.632;23.298;2022-07-25T03:55:28;92690.19;;;20.60;100.00
18137;BME280;9194;42.632;23.298;2022-07-25T04:00:58;92696.81;;;20.57;100.00
18137;BME280;9194;42.632;23.298;2022-07-25T04:06:03;92696.59;;;20.54;100.00
18137;BME280;9194;42.632;23.298;2022-07-25T04:11:05;92691.66;;;20.71;100.00
18137;BME280;9194;42.632;23.298;2022-07-25T04:16:23;92689.19;;;20.79;100.00
18137;BME280;9194;42.632;23.298;2022-07-25T04:21:25;92688.22;;;20.94;100.00
18137;BME280;9194;42.632;23.298;2022-07-25T04:26:26;92692.84;;;21.07;100.00
18137;BME280;9194;42.632;23.298;2022-07-25T04:31:28;92693.56;;;21.55;92.21
18137;BME280;9194;42.632;23.298;2022-07-25T04:36:29;92687.84;;;21.86;87.59
18137;BME280;9194;42.632;23.298;2022-07-25T04:41:30;92677.84;;;22.15;86.11
18137;BME280;9194;42.632;23.298;2022-07-25T04:46:32;92678.84;;;22.19;89.43
18137;BME280;9194;42.632;23.298;2022-07-25T04:51:33;92684.41;;;22.36;87.37
18137;BME280;9194;42.632;23.298;2022-07-25T04:56:35;92680.63;;;22.70;82.01
18137;BME280;9194;42.632;23.298;2022-07-25T05:01:36;92683.94;;;22.94;78.58
18137;BME280;9194;42.632;23.298;2022-07-25T05:06:40;92681.56;;;22.92;82.35
18137;BME280;9194;42.632;23.298;2022-07-25T05:11:41;92681.63;;;23.01;78.83
18137;BME280;9194;42.632;23.298;2022-07-25T05:16:48;92689.00;;;23.31;76.77
18137;BME280;9194;42.632;23.298;2022-07-25T05:21:50;92688.78;;;23.42;77.79
18137;BME280;9194;42.632;23.298;2022-07-25T05:26:51;92696.47;;;23.57;76.75
18137;BME280;9194;42.632;23.298;2022-07-25T05:31:53;92695.88;;;23.60;74.02
18137;BME280;9194;42.632;23.298;2022-07-25T05:36:54;92698.50;;;23.73;74.36
18137;BME280;9194;42.632;23.298;2022-07-25T05:41:56;92694.09;;;23.69;73.61
18137;BME280;9194;42.632;23.298;2022-07-25T05:47:00;92689.56;;;23.69;73.65
18137;BME280;9194;42.632;23.298;2022-07-25T05:52:05;92679.88;;;23.87;70.92
18137;BME280;9194;42.632;23.298;2022-07-25T05:57:06;92680.41;;;23.98;72.24
18137;BME280;9194;42.632;23.298;2022-07-25T06:02:07;92674.19;;;24.02;71.97
18137;BME280;9194;42.632;23.298;2022-07-25T06:07:09;92670.31;;;24.08;76.03
18137;BME280;9194;42.632;23.298;2022-07-25T06:12:10;92668.16;;;24.10;74.61
18137;BME280;9194;42.632;23.298;2022-07-25T06:17:12;92679.53;;;24.25;70.29
18137;BME280;9194;42.632;23.298;2022-07-25T06:22:13;92672.56;;;24.37;72.65
18137;BME280;9194;42.632;23.298;2022-07-25T06:27:14;92668.41;;;24.45;70.42
18137;BME280;9194;42.632;23.298;2022-07-25T06:32:16;92678.72;;;24.46;69.85
18137;BME280;9194;42.632;23.298;2022-07-25T06:37:17;92667.53;;;24.36;72.36
18137;BME280;9194;42.632;23.298;2022-07-25T06:42:18;92664.28;;;24.39;71.77
18137;BME280;9194;42.632;23.298;2022-07-25T06:47:20;92679.19;;;24.48;70.33
18137;BME280;9194;42.632;23.298;2022-07-25T06:52:21;92670.16;;;24.58;69.47
18137;BME280;9194;42.632;23.298;2022-07-25T06:57:22;92658.28;;;24.64;68.99
18137;BME280;9194;42.632;23.298;2022-07-25T07:02:27;92658.06;;;24.74;70.19
18137;BME280;9194;42.632;23.298;2022-07-25T07:07:28;92664.25;;;24.92;71.58
18137;BME280;9194;42.632;23.298;2022-07-25T07:12:29;92670.47;;;24.87;67.05
18137;BME280;9194;42.632;23.298;2022-07-25T07:17:30;92660.38;;;24.98;67.00
18137;BME280;9194;42.632;23.298;2022-07-25T07:22:42;92661.97;;;25.16;64.79
18137;BME280;9194;42.632;23.298;2022-07-25T07:27:44;92665.25;;;25.13;61.13
18137;BME280;9194;42.632;23.298;2022-07-25T07:32:45;92662.94;;;25.20;61.78
18137;BME280;9194;42.632;23.298;2022-07-25T07:37:47;92656.22;;;25.31;61.79
18137;BME280;9194;42.632;23.298;2022-07-25T07:42:49;92660.50;;;25.50;63.43
18137;BME280;9194;42.632;23.298;2022-07-25T07:47:52;92655.63;;;25.52;58.64
18137;BME280;9194;42.632;23.298;2022-07-25T07:52:55;92665.25;;;25.79;58.22
18137;BME280;9194;42.632;23.298;2022-07-25T07:57:58;92658.03;;;25.96;57.96
18137;BME280;9194;42.632;23.298;2022-07-25T08:03:01;92646.56;;;26.13;58.43
18137;BME280;9194;42.632;23.298;2022-07-25T08:08:04;92670.25;;;26.06;56.39
18137;BME280;9194;42.632;23.298;2022-07-25T08:13:16;92655.34;;;26.13;58.56
18137;BME280;9194;42.632;23.298;2022-07-25T08:18:18;92648.75;;;26.28;57.13
18137;BME280;9194;42.632;23.298;2022-07-25T08:23:20;92656.91;;;26.49;55.11
18137;BME280;9194;42.632;23.298;2022-07-25T08:28:28;92653.41;;;26.66;56.10
18137;BME280;9194;42.632;23.298;2022-07-25T08:33:30;92656.31;;;26.81;53.77
18137;BME280;9194;42.632;23.298;2022-07-25T08:38:59;92656.97;;;26.70;52.55
18137;BME280;9194;42.632;23.298;2022-07-25T08:44:01;92642.97;;;26.90;52.50
18137;BME280;9194;42.632;23.298;2022-07-25T08:49:03;92646.28;;;27.16;52.55
18137;BME280;9194;42.632;23.298;2022-07-25T08:54:04;92649.19;;;27.32;51.15
18137;BME280;9194;42.632;23.298;2022-07-25T08:59:06;92635.47;;;27.71;52.15
18137;BME280;9194;42.632;23.298;2022-07-25T09:04:07;92646.09;;;26.92;51.45
18137;BME280;9194;42.632;23.298;2022-07-25T09:09:11;92643.00;;;26.73;53.40
18137;BME280;9194;42.632;23.298;2022-07-25T09:14:13;92635.06;;;27.02;50.57
18137;BME280;9194;42.632;23.298;2022-07-25T09:19:16;92636.59;;;27.32;51.52
18137;BME280;9194;42.632;23.298;2022-07-25T09:24:18;92627.56;;;27.46;50.54
18137;BME280;9194;42.632;23.298;2022-07-25T09:29:26;92623.63;;;27.52;49.46
18137;BME280;9194;42.632;23.298;2022-07-25T09:34:40;92617.19;;;27.53;49.51
18137;BME280;9194;42.632;23.298;2022-07-25T09:39:48;92610.75;;;28.07;47.85
18137;BME280;9194;42.632;23.298;2022-07-25T09:49:59;92621.31;;;27.12;52.43
18137;BME280;9194;42.632;23.298;2022-07-25T09:55:02;92615.09;;;28.33;51.65
18137;BME280;9194;42.632;23.298;2022-07-25T10:00:05;92609.66;;;29.11;46.05
18137;BME280;9194;42.632;23.298;2022-07-25T10:10:51;92611.81;;;28.48;48.50
18137;BME280;9194;42.632;23.298;2022-07-25T10:15:53;92602.41;;;28.42;47.85
18137;BME280;9194;42.632;23.298;2022-07-25T10:21:09;92602.06;;;29.13;48.17
18137;BME280;9194;42.632;23.298;2022-07-25T10:26:13;92593.41;;;28.58;49.26
18137;BME280;9194;42.632;23.298;2022-07-25T10:36:48;92596.56;;;27.74;49.72
18137;BME280;9194;42.632;23.298;2022-07-25T10:41:57;92591.91;;;28.37;47.28
18137;BME280;9194;42.632;23.298;2022-07-25T10:47:07;92580.09;;;29.71;46.42
18137;BME280;9194;42.632;23.298;2022-07-25T10:52:16;92575.69;;;29.51;45.31
18137;BME280;9194;42.632;23.298;2022-07-25T10:57:18;92582.41;;;28.96;47.10
18137;BME280;9194;42.632;23.298;2022-07-25T11:02:19;92581.63;;;28.27;48.23
18137;BME280;9194;42.632;23.298;2022-07-25T11:07:20;92578.72;;;28.32;47.13
18137;BME280;9194;42.632;23.298;2022-07-25T11:12:22;92571.66;;;28.72;47.26
18137;BME280;9194;42.632;23.298;2022-07-25T11:17:23;92571.44;;;28.65;46.70
18137;BME280;9194;42.632;23.298;2022-07-25T11:22:26;92554.22;;;28.42;45.08
18137;BME280;9194;42.632;23.298;2022-07-25T11:27:30;92553.47;;;27.88;48.15
18137;BME280;9194;42.632;23.298;2022-07-25T11:32:43;92564.72;;;27.81;47.26
18137;BME280;9194;42.632;23.298;2022-07-25T11:37:45;92548.03;;;28.74;45.20
18137;BME280;9194;42.632;23.298;2022-07-25T11:42:51;92536.31;;;29.55;43.25
18137;BME280;9194;42.632;23.298;2022-07-25T11:53:13;92533.22;;;28.44;44.40
18137;BME280;9194;42.632;23.298;2022-07-25T11:58:16;92535.66;;;28.37;45.82
18137;BME280;9194;42.632;23.298;2022-07-25T12:03:18;92532.78;;;29.27;42.55
18137;BME280;9194;42.632;23.298;2022-07-25T12:08:23;92521.75;;;29.96;41.99
18137;BME280;9194;42.632;23.298;2022-07-25T12:13:27;92517.19;;;29.57;44.14
18137;BME280;9194;42.632;23.298;2022-07-25T12:18:28;92517.44;;;28.87;44.27
18137;BME280;9194;42.632;23.298;2022-07-25T12:23:30;92516.69;;;29.27;47.21
18137;BME280;9194;42.632;23.298;2022-07-25T12:28:31;92512.88;;;29.52;44.88
18137;BME280;9194;42.632;23.298;2022-07-25T12:33:32;92513.03;;;29.59;44.71
18137;BME280;9194;42.632;23.298;2022-07-25T12:38:34;92501.25;;;29.76;42.37
18137;BME280;9194;42.632;23.298;2022-07-25T12:43:35;92496.25;;;30.18;44.38
18137;BME280;9194;42.632;23.298;2022-07-25T12:48:36;92493.06;;;30.28;44.77
18137;BME280;9194;42.632;23.298;2022-07-25T12:53:38;92497.50;;;29.13;42.69
18137;BME280;9194;42.632;23.298;2022-07-25T12:58:39;92490.63;;;28.99;43.19
18137;BME280;9194;42.632;23.298;2022-07-25T13:03:40;92478.28;;;29.63;43.34
18137;BME280;9194;42.632;23.298;2022-07-25T13:08:41;92478.47;;;29.30;43.06
18137;BME280;9194;42.632;23.298;2022-07-25T13:13:43;92476.66;;;28.94;46.75
18137;BME280;9194;42.632;23.298;2022-07-25T13:18:44;92462.72;;;28.40;48.90
18137;BME280;9194;42.632;23.298;2022-07-25T13:23:46;92475.47;;;28.10;49.39
18137;BME280;9194;42.632;23.298;2022-07-25T13:28:47;92470.88;;;27.86;46.08
18137;BME280;9194;42.632;23.298;2022-07-25T13:33:49;92466.47;;;27.69;46.45
18137;BME280;9194;42.632;23.298;2022-07-25T13:38:50;92461.59;;;28.16;48.29
18137;BME280;9194;42.632;23.298;2022-07-25T13:43:52;92461.50;;;28.74;45.43
18137;BME280;9194;42.632;23.298;2022-07-25T13:48:54;92460.75;;;29.13;45.02
18137;BME280;9194;42.632;23.298;2022-07-25T13:53:55;92462.91;;;29.48;44.31
18137;BME280;9194;42.632;23.298;2022-07-25T13:58:57;92453.19;;;29.43;42.83
18137;BME280;9194;42.632;23.298;2022-07-25T14:03:58;92445.63;;;29.61;42.51
18137;BME280;9194;42.632;23.298;2022-07-25T14:09:03;92448.06;;;29.66;44.29
18137;BME280;9194;42.632;23.298;2022-07-25T14:14:04;92447.47;;;29.72;42.86
18137;BME280;9194;42.632;23.298;2022-07-25T14:19:07;92449.81;;;29.58;42.88
18137;BME280;9194;42.632;23.298;2022-07-25T14:24:08;92433.56;;;29.83;41.70
18137;BME280;9194;42.632;23.298;2022-07-25T14:29:10;92439.94;;;30.06;42.36
18137;BME280;9194;42.632;23.298;2022-07-25T14:34:12;92440.41;;;29.80;41.06
18137;BME280;9194;42.632;23.298;2022-07-25T14:39:15;92434.50;;;29.74;39.76
18137;BME280;9194;42.632;23.298;2022-07-25T14:44:17;92437.63;;;29.76;40.56
18137;BME280;9194;42.632;23.298;2022-07-25T14:49:18;92436.81;;;29.60;39.92
18137;BME280;9194;42.632;23.298;2022-07-25T14:54:19;92430.00;;;29.35;41.14
18137;BME280;9194;42.632;23.298;2022-07-25T14:59:22;92417.84;;;29.53;40.26
18137;BME280;9194;42.632;23.298;2022-07-25T15:04:23;92423.13;;;29.50;38.72
18137;BME280;9194;42.632;23.298;2022-07-25T15:09:25;92418.41;;;29.74;38.98
18137;BME280;9194;42.632;23.298;2022-07-25T15:14:38;92418.69;;;29.85;38.98
18137;BME280;9194;42.632;23.298;2022-07-25T15:19:39;92413.06;;;29.90;38.97
18137;BME280;9194;42.632;23.298;2022-07-25T15:24:40;92417.00;;;29.93;40.84
18137;BME280;9194;42.632;23.298;2022-07-25T15:29:41;92407.34;;;29.76;43.37
18137;BME280;9194;42.632;23.298;2022-07-25T15:34:43;92398.91;;;29.62;44.06
18137;BME280;9194;42.632;23.298;2022-07-25T15:39:44;92395.16;;;29.51;44.15
18137;BME280;9194;42.632;23.298;2022-07-25T15:44:45;92397.31;;;29.45;44.40
18137;BME280;9194;42.632;23.298;2022-07-25T15:49:47;92407.63;;;29.31;43.78
18137;BME280;9194;42.632;23.298;2022-07-25T15:54:49;92409.19;;;29.32;42.98
18137;BME280;9194;42.632;23.298;2022-07-25T15:59:51;92405.09;;;29.34;42.70
18137;BME280;9194;42.632;23.298;2022-07-25T16:04:52;92406.56;;;29.20;42.41
18137;BME280;9194;42.632;23.298;2022-07-25T16:09:54;92411.72;;;29.13;45.37
18137;BME280;9194;42.632;23.298;2022-07-25T16:14:56;92416.44;;;29.04;45.54
18137;BME280;9194;42.632;23.298;2022-07-25T16:19:58;92419.91;;;29.04;45.15
18137;BME280;9194;42.632;23.298;2022-07-25T16:24:59;92430.75;;;28.95;46.86
18137;BME280;9194;42.632;23.298;2022-07-25T16:30:01;92415.84;;;28.82;46.71
18137;BME280;9194;42.632;23.298;2022-07-25T16:35:02;92418.63;;;28.62;47.88
18137;BME280;9194;42.632;23.298;2022-07-25T16:40:04;92416.97;;;28.45;48.13
18137;BME280;9194;42.632;23.298;2022-07-25T16:45:09;92422.31;;;28.21;49.17
18137;BME280;9194;42.632;23.298;2022-07-25T16:50:10;92420.94;;;28.02;49.50
18137;BME280;9194;42.632;23.298;2022-07-25T16:55:41;92421.81;;;27.82;50.54
18137;BME280;9194;42.632;23.298;2022-07-25T17:00:42;92418.22;;;27.66;51.95
18137;BME280;9194;42.632;23.298;2022-07-25T17:05:43;92421.91;;;27.41;53.25
18137;BME280;9194;42.632;23.298;2022-07-25T17:10:47;92419.81;;;27.13;54.23
18137;BME280;9194;42.632;23.298;2022-07-25T17:16:12;92423.16;;;26.81;54.41
18137;BME280;9194;42.632;23.298;2022-07-25T17:21:13;92423.84;;;26.48;56.23
18137;BME280;9194;42.632;23.298;2022-07-25T17:26:16;92424.50;;;26.07;58.73
18137;BME280;9194;42.632;23.298;2022-07-25T17:31:18;92435.00;;;25.66;60.65
18137;BME280;9194;42.632;23.298;2022-07-25T17:36:19;92430.97;;;25.25;62.67
18137;BME280;9194;42.632;23.298;2022-07-25T17:41:21;92433.31;;;24.84;66.15
18137;BME280;9194;42.632;23.298;2022-07-25T17:46:22;92439.38;;;24.50;68.84
18137;BME280;9194;42.632;23.298;2022-07-25T17:51:24;92448.81;;;24.17;70.04
18137;BME280;9194;42.632;23.298;2022-07-25T17:56:25;92451.53;;;23.94;73.12
18137;BME280;9194;42.632;23.298;2022-07-25T18:01:26;92447.38;;;23.71;74.06
18137;BME280;9194;42.632;23.298;2022-07-25T18:06:28;92461.19;;;23.51;75.08
18137;BME280;9194;42.632;23.298;2022-07-25T18:11:29;92458.81;;;23.27;77.19
18137;BME280;9194;42.632;23.298;2022-07-25T18:16:54;92459.66;;;23.14;78.53
18137;BME280;9194;42.632;23.298;2022-07-25T18:21:58;92464.25;;;23.00;79.54
18137;BME280;9194;42.632;23.298;2022-07-25T18:26:59;92473.09;;;22.95;80.63
18137;BME280;9194;42.632;23.298;2022-07-25T18:32:00;92472.38;;;22.81;80.93
18137;BME280;9194;42.632;23.298;2022-07-25T18:37:02;92467.25;;;22.71;81.24
18137;BME280;9194;42.632;23.298;2022-07-25T18:42:03;92473.09;;;22.59;80.79
18137;BME280;9194;42.632;23.298;2022-07-25T18:47:05;92482.41;;;22.57;82.51
18137;BME280;9194;42.632;23.298;2022-07-25T18:52:06;92495.00;;;22.51;83.39
18137;BME280;9194;42.632;23.298;2022-07-25T18:57:08;92491.25;;;22.38;84.60
18137;BME280;9194;42.632;23.298;2022-07-25T19:02:09;92492.44;;;22.32;84.83
18137;BME280;9194;42.632;23.298;2022-07-25T19:07:11;92493.06;;;22.29;85.62
18137;BME280;9194;42.632;23.298;2022-07-25T19:12:12;92499.16;;;22.30;85.42
18137;BME280;9194;42.632;23.298;2022-07-25T19:17:13;92500.50;;;22.13;87.37
18137;BME280;9194;42.632;23.298;2022-07-25T19:22:15;92516.13;;;22.01;88.36
18137;BME280;9194;42.632;23.298;2022-07-25T19:27:17;92513.84;;;21.95;88.66
18137;BME280;9194;42.632;23.298;2022-07-25T19:32:18;92518.91;;;21.91;89.47
18137;BME280;9194;42.632;23.298;2022-07-25T19:37:20;92523.03;;;21.84;90.47
18137;BME280;9194;42.632;23.298;2022-07-25T19:42:22;92521.56;;;21.78;90.98
18137;BME280;9194;42.632;23.298;2022-07-25T19:47:24;92520.06;;;21.71;92.06
18137;BME280;9194;42.632;23.298;2022-07-25T19:52:25;92518.00;;;21.68;92.67
18137;BME280;9194;42.632;23.298;2022-07-25T19:57:26;92518.88;;;21.64;92.94
18137;BME280;9194;42.632;23.298;2022-07-25T20:02:28;92515.81;;;21.57;93.33
18137;BME280;9194;42.632;23.298;2022-07-25T20:07:29;92525.69;;;21.51;93.72
18137;BME280;9194;42.632;23.298;2022-07-25T20:12:32;92519.69;;;21.46;94.52
18137;BME280;9194;42.632;23.298;2022-07-25T20:17:34;92515.56;;;21.40;94.55
18137;BME280;9194;42.632;23.298;2022-07-25T20:22:35;92519.06;;;21.35;94.86
18137;BME280;9194;42.632;23.298;2022-07-25T20:27:41;92515.84;;;21.38;95.69
18137;BME280;9194;42.632;23.298;2022-07-25T20:32:43;92522.88;;;21.29;96.71
18137;BME280;9194;42.632;23.298;2022-07-25T20:37:44;92521.38;;;21.23;97.21
18137;BME280;9194;42.632;23.298;2022-07-25T20:42:45;92519.09;;;21.16;97.34
18137;BME280;9194;42.632;23.298;2022-07-25T20:47:47;92511.38;;;21.20;97.05
18137;BME280;9194;42.632;23.298;2022-07-25T20:52:48;92516.78;;;21.10;96.98
18137;BME280;9194;42.632;23.298;2022-07-25T20:57:49;92509.84;;;21.14;96.42
18137;BME280;9194;42.632;23.298;2022-07-25T21:02:51;92508.63;;;21.06;96.66
18137;BME280;9194;42.632;23.298;2022-07-25T21:07:52;92518.78;;;20.99;96.74
18137;BME280;9194;42.632;23.298;2022-07-25T21:12:54;92519.78;;;21.03;96.27
18137;BME280;9194;42.632;23.298;2022-07-25T21:17:57;92518.44;;;21.06;93.20
18137;BME280;9194;42.632;23.298;2022-07-25T21:22:58;92518.53;;;21.19;90.54
18137;BME280;9194;42.632;23.298;2022-07-25T21:27:59;92516.28;;;21.26;90.10
18137;BME280;9194;42.632;23.298;2022-07-25T21:33:01;92518.09;;;21.31;89.32
18137;BME280;9194;42.632;23.298;2022-07-25T21:38:02;92519.63;;;21.32;90.42
18137;BME280;9194;42.632;23.298;2022-07-25T21:43:03;92511.88;;;21.22;91.20
18137;BME280;9194;42.632;23.298;2022-07-25T21:48:05;92514.03;;;21.20;90.14
18137;BME280;9194;42.632;23.298;2022-07-25T21:53:08;92507.63;;;21.21;89.63
18137;BME280;9194;42.632;23.298;2022-07-25T21:58:10;92501.41;;;21.12;90.47
18137;BME280;9194;42.632;23.298;2022-07-25T22:03:11;92495.59;;;21.10;89.73
18137;BME280;9194;42.632;23.298;2022-07-25T22:08:13;92489.41;;;21.01;90.79
18137;BME280;9194;42.632;23.298;2022-07-25T22:13:16;92495.84;;;20.95;90.41
18137;BME280;9194;42.632;23.298;2022-07-25T22:18:17;92490.97;;;20.83;90.35
18137;BME280;9194;42.632;23.298;2022-07-25T22:23:19;92480.25;;;20.74;90.70
18137;BME280;9194;42.632;23.298;2022-07-25T22:28:25;92480.31;;;20.69;91.35
18137;BME280;9194;42.632;23.298;2022-07-25T22:33:26;92476.16;;;20.63;92.16
18137;BME280;9194;42.632;23.298;2022-07-25T22:38:30;92481.69;;;20.67;93.19
18137;BME280;9194;42.632;23.298;2022-07-25T22:43:32;92480.81;;;20.53;92.26
18137;BME280;9194;42.632;23.298;2022-07-25T22:48:33;92482.16;;;20.50;91.30
18137;BME280;9194;42.632;23.298;2022-07-25T22:53:34;92476.88;;;20.50;91.19
18137;BME280;9194;42.632;23.298;2022-07-25T22:58:36;92475.88;;;20.46;91.42
18137;BME280;9194;42.632;23.298;2022-07-25T23:03:37;92465.88;;;20.43;91.93
18137;BME280;9194;42.632;23.298;2022-07-25T23:08:39;92471.44;;;20.41;92.57
18137;BME280;9194;42.632;23.298;2022-07-25T23:13:40;92471.97;;;20.20;93.83
18137;BME280;9194;42.632;23.298;2022-07-25T23:18:42;92462.00;;;20.12;93.61
18137;BME280;9194;42.632;23.298;2022-07-25T23:23:43;92448.41;;;19.99;94.32
18137;BME280;9194;42.632;23.298;2022-07-25T23:28:44;92444.09;;;20.08;93.23
18137;BME280;9194;42.632;23.298;2022-07-25T23:33:45;92447.00;;;20.07;92.77
18137;BME280;9194;42.632;23.298;2022-07-25T23:38:47;92442.06;;;20.00;94.06
18137;BME280;9194;42.632;23.298;2022-07-25T23:43:48;92441.84;;;19.97;95.83
18137;BME280;9194;42.632;23.298;2022-07-25T23:48:54;92443.38;;;19.79;94.46
18137;BME280;9194;42.632;23.298;2022-07-25T23:53:56;92454.94;;;19.83;94.74
18137;BME280;9194;42.632;23.298;2022-07-25T23:58:57;92456.66;;;19.69;96.80
